createdAt,value
2023-01-08T00:03:52.830Z,5.45
2023-01-08T00:09:14.092Z,5.93
2023-01-08T00:14:34.763Z,6.13
2023-01-08T00:19:55.612Z,6.15
2023-01-08T00:25:17.429Z,5.93
2023-01-08T00:30:38.465Z,5.97
2023-01-08T00:35:59.762Z,5.18
2023-01-08T00:41:20.541Z,5.60
2023-01-08T00:46:41.324Z,5.25
2023-01-08T00:52:01.995Z,6.40
2023-01-08T00:57:22.913Z,5.13
2023-01-08T01:02:44.278Z,6.18
2023-01-08T01:08:05.310Z,6.35
2023-01-08T01:13:26.300Z,5.57
2023-01-08T01:18:47.294Z,6.07
2023-01-08T01:24:10.522Z,5.70
2023-01-08T01:29:31.454Z,6.45
2023-01-08T01:34:52.296Z,5.95
2023-01-08T01:40:12.912Z,6.70
2023-01-08T01:45:33.581Z,6.75
2023-01-08T01:50:54.407Z,7.80
2023-01-08T01:56:16.020Z,6.57
2023-01-08T02:01:36.959Z,6.00
2023-01-08T02:07:09.222Z,6.72
2023-01-08T02:12:35.986Z,7.57
2023-01-08T02:18:28.851Z,8.05
2023-01-08T02:24:01.876Z,6.47
2023-01-08T02:29:25.583Z,7.05
2023-01-08T02:34:46.169Z,7.63
2023-01-08T02:40:30.736Z,7.38
2023-01-08T02:45:57.286Z,6.90
2023-01-08T02:51:49.773Z,8.38
2023-01-08T02:57:13.921Z,9.25
2023-01-08T03:02:37.181Z,8.32
2023-01-08T03:07:58.059Z,8.43
2023-01-08T03:13:34.994Z,8.23
2023-01-08T03:19:02.715Z,8.50
2023-01-08T03:24:29.693Z,7.53
2023-01-08T03:29:53.720Z,8.25
2023-01-08T03:35:19.638Z,7.45
2023-01-08T03:40:46.258Z,7.03
2023-01-08T03:46:15.665Z,8.65
2023-01-08T03:51:44.304Z,8.40
2023-01-08T03:57:05.231Z,8.38
2023-01-08T04:02:25.969Z,7.88
2023-01-08T04:07:47.029Z,9.25
2023-01-08T04:13:07.867Z,8.73
2023-01-08T04:18:28.538Z,7.80
2023-01-08T04:23:49.146Z,7.18
2023-01-08T04:29:10.889Z,8.65
2023-01-08T04:34:31.753Z,7.90
2023-01-08T04:39:52.279Z,9.25
2023-01-08T04:45:13.228Z,8.18
2023-01-08T04:50:34.243Z,7.70
2023-01-08T04:55:54.938Z,7.45
2023-01-08T05:01:21.049Z,8.32
2023-01-08T05:06:41.844Z,7.78
2023-01-08T05:12:02.679Z,7.50
2023-01-08T05:17:23.344Z,7.78
2023-01-08T05:22:44.091Z,8.18
2023-01-08T05:28:04.837Z,8.35
2023-01-08T05:33:26.325Z,7.45
2023-01-08T05:38:47.365Z,8.65
2023-01-08T05:44:07.944Z,7.93
2023-01-08T05:49:28.526Z,9.43
2023-01-08T05:54:49.149Z,8.55
2023-01-08T06:00:11.056Z,8.60
2023-01-08T06:05:34.621Z,8.25
2023-01-08T06:10:59.451Z,8.90
2023-01-08T06:16:21.198Z,7.90
2023-01-08T06:21:42.058Z,8.25
2023-01-08T06:27:02.821Z,7.95
2023-01-08T06:32:23.465Z,8.93
2023-01-08T06:37:44.175Z,8.50
2023-01-08T06:43:05.638Z,7.72
2023-01-08T06:48:26.943Z,7.68
2023-01-08T06:53:48.889Z,6.93
2023-01-08T06:59:09.466Z,7.95
2023-01-08T07:04:30.295Z,7.10
2023-01-08T07:09:51.013Z,8.27
2023-01-08T07:15:12.058Z,8.15
2023-01-08T07:20:34.314Z,8.05
2023-01-08T07:25:54.943Z,8.13
2023-01-08T07:31:15.647Z,7.43
2023-01-08T07:36:36.262Z,8.02
2023-01-08T07:41:56.935Z,7.47
2023-01-08T07:47:19.009Z,6.75
2023-01-08T07:52:40.067Z,5.80
2023-01-08T07:58:00.739Z,5.90
2023-01-08T08:03:22.274Z,5.32
2023-01-08T08:08:43.168Z,6.63
2023-01-08T08:14:05.025Z,5.78
2023-01-08T08:19:25.969Z,6.07
2023-01-08T08:24:46.839Z,7.03
2023-01-08T08:30:08.564Z,6.25
2023-01-08T08:35:30.204Z,7.53
2023-01-08T08:40:51.028Z,5.88
2023-01-08T08:46:11.801Z,8.45
2023-01-08T08:51:32.496Z,7.13
2023-01-08T08:56:53.316Z,7.50
2023-01-08T09:02:14.437Z,7.80
2023-01-08T09:07:35.585Z,8.75
2023-01-08T09:12:56.431Z,7.78
2023-01-08T09:18:16.965Z,8.68
2023-01-08T09:23:38.831Z,8.30
2023-01-08T09:28:59.780Z,8.02
2023-01-08T09:34:20.709Z,7.63
2023-01-08T09:39:42.598Z,6.25
2023-01-08T09:45:06.676Z,7.88
2023-01-08T09:50:29.369Z,7.20
2023-01-08T09:56:09.648Z,5.70
2023-01-08T10:01:41.303Z,5.97
2023-01-08T10:07:23.022Z,7.63
2023-01-08T10:12:44.888Z,7.18
2023-01-08T10:18:12.129Z,7.00
2023-01-08T10:23:33.130Z,6.82
2023-01-08T10:29:11.468Z,6.70
2023-01-08T10:34:50.290Z,6.25
2023-01-08T10:40:29.471Z,5.72
2023-01-08T10:46:00.055Z,6.75
2023-01-08T10:51:24.915Z,5.95
2023-01-08T10:56:46.504Z,7.00
2023-01-08T11:02:31.248Z,5.93
2023-01-08T11:07:56.458Z,7.75
2023-01-08T11:13:18.100Z,7.50
2023-01-08T11:18:49.864Z,6.78
2023-01-08T11:24:18.084Z,6.38
2023-01-08T11:29:51.775Z,6.85
2023-01-08T11:35:18.969Z,6.00
2023-01-08T11:40:43.036Z,5.72
2023-01-08T11:46:16.153Z,6.47
2023-01-08T11:51:44.461Z,5.13
2023-01-08T11:57:36.151Z,5.75
2023-01-08T12:03:03.485Z,5.25
2023-01-08T12:08:55.777Z,5.30
2023-01-08T12:14:31.913Z,5.32
2023-01-08T12:20:06.406Z,6.72
2023-01-08T12:25:56.130Z,5.88
2023-01-08T12:31:32.288Z,5.78
2023-01-08T12:37:03.536Z,5.57
2023-01-08T12:42:28.333Z,5.68
2023-01-08T12:47:54.985Z,5.70
2023-01-08T12:54:00.488Z,7.05
2023-01-08T12:59:21.465Z,6.20
2023-01-08T13:04:47.698Z,6.85
2023-01-08T13:10:20.762Z,6.63
2023-01-08T13:15:41.698Z,5.45
2023-01-08T13:21:04.282Z,5.57
2023-01-08T13:26:33.272Z,5.85
2023-01-08T13:31:54.136Z,5.30
2023-01-08T13:37:27.744Z,5.53
2023-01-08T13:42:49.258Z,6.28
2023-01-08T13:48:24.964Z,6.45
2023-01-08T13:53:46.551Z,6.10
2023-01-08T13:59:37.379Z,5.95
2023-01-08T14:05:01.547Z,5.63
2023-01-08T14:10:23.357Z,5.22
2023-01-08T14:15:44.584Z,4.82
2023-01-08T14:21:08.026Z,4.72
2023-01-08T14:26:38.741Z,5.82
2023-01-08T14:32:02.715Z,5.05
2023-01-08T14:37:24.056Z,5.75
2023-01-08T14:42:53.554Z,5.25
2023-01-08T14:48:34.598Z,6.13
2023-01-08T14:54:03.802Z,6.05
2023-01-08T14:59:30.134Z,6.67
2023-01-08T15:05:01.797Z,6.32
2023-01-08T15:10:32.319Z,6.55
2023-01-08T15:16:00.963Z,6.22
2023-01-08T15:21:23.687Z,6.28
2023-01-08T15:26:44.644Z,6.78
2023-01-08T15:32:12.420Z,7.20
2023-01-08T15:37:33.596Z,6.32
2023-01-08T15:43:12.464Z,7.97
2023-01-08T15:48:33.380Z,7.20
2023-01-08T15:53:54.437Z,8.50
2023-01-08T15:59:15.048Z,7.20
2023-01-08T16:04:35.726Z,8.18
2023-01-08T16:09:56.559Z,7.72
2023-01-08T16:15:17.499Z,7.75
2023-01-08T16:20:38.728Z,7.35
2023-01-08T16:25:59.791Z,7.03
2023-01-08T16:31:20.537Z,6.35
2023-01-08T16:36:41.168Z,7.75
2023-01-08T16:42:02.169Z,5.53
2023-01-08T16:47:23.089Z,6.45
2023-01-08T16:52:44.670Z,5.57
2023-01-08T16:58:05.790Z,7.90
2023-01-08T17:03:26.739Z,7.40
2023-01-08T17:08:47.210Z,5.97
2023-01-08T17:14:09.108Z,6.55
2023-01-08T17:19:29.702Z,8.18
2023-01-08T17:24:50.428Z,6.57
2023-01-08T17:30:12.827Z,7.68
2023-01-08T17:35:34.035Z,8.43
2023-01-08T17:40:55.137Z,8.48
2023-01-08T17:46:16.092Z,7.53
2023-01-08T17:51:38.590Z,6.50
2023-01-08T17:56:59.540Z,7.47
2023-01-08T18:02:20.732Z,8.55
2023-01-08T18:07:41.822Z,8.52
2023-01-08T18:13:04.573Z,6.72
2023-01-08T18:18:25.351Z,7.75
2023-01-08T18:23:49.103Z,8.25
2023-01-08T18:29:10.506Z,10.10
2023-01-08T18:34:31.545Z,11.00
2023-01-08T18:39:52.325Z,10.48
2023-01-08T18:45:15.189Z,10.25
2023-01-08T18:50:40.547Z,8.55
2023-01-08T18:56:01.910Z,9.48
2023-01-08T19:01:23.165Z,7.75
2023-01-08T19:06:45.062Z,10.00
2023-01-08T19:12:06.552Z,11.20
2023-01-08T19:17:31.011Z,8.85
2023-01-08T19:22:54.238Z,8.15
2023-01-08T19:28:15.147Z,8.02
2023-01-08T19:33:35.842Z,6.88
2023-01-08T19:38:56.808Z,7.88
2023-01-08T19:44:17.520Z,7.70
2023-01-08T19:49:41.538Z,7.68
2023-01-08T19:55:02.642Z,7.85
2023-01-08T20:00:23.658Z,6.97
2023-01-08T20:05:44.464Z,6.60
2023-01-08T20:11:07.461Z,7.22
2023-01-08T20:16:30.471Z,7.85
2023-01-08T20:21:51.300Z,7.15
2023-01-08T20:27:12.337Z,6.85
2023-01-08T20:32:33.752Z,6.18
2023-01-08T20:37:54.465Z,7.95
2023-01-08T20:43:17.639Z,6.88
2023-01-08T20:48:46.837Z,6.93
2023-01-08T20:54:11.650Z,9.07
2023-01-08T20:59:33.636Z,7.85
2023-01-08T21:04:55.444Z,11.43
2023-01-08T21:10:16.677Z,12.90
2023-01-08T21:15:37.770Z,10.68
2023-01-08T21:21:05.734Z,11.73
2023-01-08T21:26:26.786Z,9.15
2023-01-08T21:31:48.111Z,12.25
2023-01-08T21:37:08.991Z,9.65
2023-01-08T21:42:48.373Z,13.90
2023-01-08T21:48:09.549Z,11.32
2023-01-08T21:53:36.161Z,8.23
2023-01-08T21:58:57.498Z,11.55
2023-01-08T22:04:18.083Z,12.02
2023-01-08T22:09:38.906Z,16.30
2023-01-08T22:15:00.054Z,12.35
2023-01-08T22:20:20.926Z,9.25
2023-01-08T22:25:41.761Z,9.85
2023-01-08T22:31:05.980Z,12.48
2023-01-08T22:36:27.145Z,12.77
2023-01-08T22:41:48.140Z,16.30
2023-01-08T22:47:10.212Z,13.00
2023-01-08T22:52:30.960Z,16.85
2023-01-08T22:57:54.441Z,12.48
2023-01-08T23:03:15.436Z,9.48
2023-01-08T23:08:36.254Z,7.85
2023-01-08T23:13:57.083Z,9.00
2023-01-08T23:19:17.799Z,9.05
2023-01-08T23:24:38.509Z,9.38
2023-01-08T23:29:59.710Z,7.95
2023-01-08T23:35:20.978Z,10.63
2023-01-08T23:40:45.946Z,6.72
2023-01-08T23:46:07.850Z,8.48
2023-01-08T23:51:28.669Z,9.10
2023-01-08T23:56:49.595Z,7.30
